ADDS METAR Data INFO
IDs: Format: Raw Decoded Include TAF

Data at: 1403 UTC 24 Feb 2018

KBDN 241355Z AUTO 23009KT 1 1/4SM -SN OVC001 M00/M01 A2995 RMK AO2
KBDN 241335Z AUTO 21006KT 1SM -SN BKN002 OVC010 M00/M01 A2997 RMK AO2
KBDN 241315Z AUTO 23005G10KT 3SM -SN FEW001 FEW009 BKN014 00/M02 A2998 RMK AO2
KBDN 241255Z AUTO 21006KT 9SM -SN CLR 00/M03 A2998 RMK AO2
KBDN 241235Z AUTO 17005KT 6SM -SN FEW002 SCT011 BKN022 00/M03 A2998 RMK AO2
KBDN 241215Z AUTO 18010KT 5SM -SN FEW010 FEW016 SCT023 00/M04 A2998 RMK AO2
KBDN 241155Z AUTO 19014KT 10SM CLR 00/M04 A2999 RMK AO2
KBDN 241135Z AUTO 20017G22KT 9SM -RA CLR 00/M04 A3000 RMK AO2
KBDN 241115Z AUTO 20017G24KT 10SM -RA FEW055 00/M04 A3000 RMK AO2
KBDN 241055Z AUTO 19016G23KT 10SM -UP FEW050 FEW060 00/M05 A3002 RMK AO2
KBDN 241035Z AUTO 19014KT 10SM CLR M00/M05 A3004 RMK AO2
KBDN 241015Z AUTO 19017G22KT 10SM CLR M00/M05 A3006 RMK AO2
KBDN 240955Z AUTO 21015G22KT 10SM CLR M00/M05 A3007 RMK AO2
KBDN 240935Z AUTO 19011KT 10SM CLR M01/M06 A3009 RMK AO2
KBDN 240915Z AUTO 18011KT 10SM FEW055 M01/M05 A3010 RMK AO2
KBDN 240855Z AUTO 20012G20KT 10SM FEW055 M01/M06 A3012 RMK AO2
KBDN 240835Z AUTO 21017G23KT 10SM CLR M01/M06 A3013 RMK AO2
KBDN 240815Z AUTO 21013G18KT 10SM CLR M02/M06 A3014 RMK AO2
KBDN 240755Z AUTO 21012KT 10SM FEW050 SCT060 M02/M06 A3015 RMK AO2
KBDN 240735Z AUTO 20015KT 10SM SCT049 M02/M07 A3016 RMK AO2
KBDN 240715Z AUTO 20013KT 10SM FEW041 BKN048 M02/M08 A3017 RMK AO2
KBDN 240655Z AUTO 21013G19KT 10SM SCT043 BKN050 BKN055 M02/M08 A3018 RMK AO2
KBDN 240635Z AUTO 21016KT 10SM BKN049 M02/M09 A3019 RMK AO2
KBDN 240615Z AUTO 21019KT 10SM BKN048 BKN055 M02/M09 A3019 RMK AO2
KBDN 240555Z AUTO 21014G20KT 10SM OVC047 M02/M09 A3020 RMK AO2
KBDN 240535Z AUTO 21013G19KT 10SM BKN048 BKN055 M02/M09 A3021 RMK AO2
KBDN 240515Z AUTO 21015KT 10SM SCT050 BKN055 M02/M08 A3021 RMK AO2
KBDN 240455Z AUTO 21014KT 10SM SCT050 BKN055 M02/M09 A3022 RMK AO2
KBDN 240435Z AUTO 21014KT 10SM FEW043 BKN049 BKN060 M02/M09 A3023 RMK AO2
KBDN 240415Z AUTO 19011G16KT BKN041 OVC048 M02/M10 A3023 RMK AO2
KBDN 240355Z AUTO 21011KT 10SM OVC042 M01/M10 A3024 RMK AO2
KBDN 240335Z AUTO 18008KT 10SM BKN043 OVC070 M01/M11 A3025 RMK AO2
KBDN 240315Z AUTO 11007KT 10SM BKN047 BKN060 BKN070 M02/M11 A3025 RMK AO2
KBDN 240255Z AUTO 13005KT 10SM OVC049 M01/M11 A3026 RMK AO2
KBDN 240235Z AUTO 13004KT 10SM -UP OVC050 M01/M12 A3026 RMK AO2
KBDN 240215Z AUTO 12004KT 10SM OVC050 M01/M12 A3026 RMK AO2
KBDN 240155Z AUTO 00000KT 10SM OVC050 M01/M12 A3026 RMK AO2
KBDN 240135Z AUTO 05004KT 10SM OVC050 M01/M12 A3025 RMK AO2
KBDN 240115Z AUTO 03005KT 10SM FEW043 SCT050 M00/M13 A3025 RMK AO2
KBDN 240055Z AUTO 01005KT 10SM FEW045 BKN050 M00/M13 A3025 RMK AO2
KBDN 240035Z AUTO 01005KT 10SM FEW040 FEW046 BKN055 00/M13 A3025 RMK AO2
KBDN 240015Z AUTO 36004KT 10SM FEW040 SCT046 BKN050 00/M12 A3024 RMK AO2
KBDN 232355Z AUTO 32004KT 10SM SCT050 SCT060 BKN065 02/M11 A3024 RMK AO2
KBDN 232335Z AUTO 00000KT 10SM FEW044 BKN050 02/M12 A3024 RMK AO2
KBDN 232315Z AUTO 22006KT 10SM FEW044 BKN050 02/M10 A3023 RMK AO2
KBDN 232255Z AUTO 19004KT 10SM FEW044 01/M10 A3023 RMK AO2
KBDN 232235Z AUTO 00000KT 10SM CLR 01/M11 A3024 RMK AO2
KBDN 232055Z AUTO 22008KT 10SM BKN075 BKN085 00/M12 A3028 RMK AO2
KBDN 232035Z AUTO 21006KT 10SM FEW080 M01/M13 A3028 RMK AO2
KBDN 232015Z AUTO 19008KT 10SM CLR M01/M13 A3028 RMK AO2
KBDN 231955Z AUTO 19007KT 10SM CLR M02/M13 A3029 RMK AO2
KBDN 231935Z AUTO 19011KT 10SM CLR M02/M13 A3030 RMK AO2
KBDN 231915Z AUTO 20007KT CLR M03/M12 A3032 RMK AO2
KBDN 231855Z AUTO 00000KT 10SM CLR M04/M12 A3032 RMK AO2
KBDN 231835Z AUTO 00000KT 10SM CLR M05/M13 A3032 RMK AO2
KBDN 231815Z AUTO 11004KT 10SM CLR M06/M13 A3032 RMK AO2
KBDN 231755Z AUTO 12006KT 10SM CLR M06/M12 A3032 RMK AO2
KBDN 231735Z AUTO 18007KT 10SM CLR M07/M12 A3033 RMK AO2
KBDN 231715Z AUTO 18005KT 10SM CLR M08/M13 A3033 RMK AO2
KBDN 231655Z AUTO 17005KT 10SM CLR M10/M13 A3034 RMK AO2
KBDN 231635Z AUTO 18006KT 10SM CLR M11/M14 A3034 RMK AO2
KBDN 231615Z AUTO 17005KT 10SM CLR M12/M15 A3034 RMK AO2
KBDN 231555Z AUTO 18006KT 10SM CLR M14/M17 A3034 RMK AO2
KBDN 231535Z AUTO 19004KT 10SM CLR M15/M18 A3034 RMK AO2
KBDN 231515Z AUTO 20005KT 10SM CLR M16/M19 A3033 RMK AO2
KBDN 231455Z AUTO 18006KT 10SM CLR M16/M19 A3032 RMK AO2
KBDN 231435Z AUTO 20004KT 10SM CLR M17/M19 A3033 RMK AO2
KBDN 231415Z AUTO 20004KT 10SM CLR M16/M19 A3033 RMK AO2
KBDN 231355Z AUTO 19004KT 10SM CLR M17/M19 A3033 RMK AO2
KBDN 231335Z AUTO 00000KT 10SM CLR M16/M18 A3032 RMK AO2
KBDN 231315Z AUTO 21005KT 10SM CLR M16/M18 A3032 RMK AO2
KBDN 231255Z AUTO 20004KT 10SM CLR M16/M18 A3032 RMK AO2
KBDN 231235Z AUTO 21004KT 10SM CLR M16/M18 A3032 RMK AO2
KBDN 231215Z AUTO 00000KT 10SM CLR M16/M18 A3032 RMK AO2
KBDN 231155Z AUTO 21006KT 10SM CLR M15/M17 A3032 RMK AO2
KBDN 231135Z AUTO 21004KT 10SM CLR M16/M18 A3031 RMK AO2
KBDN 231115Z AUTO 21004KT 10SM CLR M15/M17 A3031 RMK AO2
KBDN 231055Z AUTO 22004KT 10SM CLR M16/M18 A3031 RMK AO2
KBDN 231035Z AUTO 00000KT 10SM CLR M16/M18 A3031 RMK AO2
KBDN 231015Z AUTO 21003KT 10SM CLR M15/M16 A3031 RMK AO2
KBDN 230955Z AUTO 00000KT 10SM CLR M15/M16 A3030 RMK AO2
KBDN 230935Z AUTO 00000KT 10SM CLR M15/M16 A3030 RMK AO2
KBDN 230915Z AUTO 00000KT 10SM FEW016 M14/M16 A3029 RMK AO2
KBDN 230855Z AUTO 00000KT 10SM BKN015 M13/M15 A3029 RMK AO2
KBDN 230835Z AUTO 00000KT 10SM OVC015 M12/M14 A3028 RMK AO2
KBDN 230815Z AUTO 00000KT 10SM BKN014 M12/M14 A3028 RMK AO2
KBDN 230755Z AUTO 00000KT 10SM CLR M13/M15 A3028 RMK AO2
KBDN 230735Z AUTO 00000KT 10SM FEW005 SCT010 SCT015 M11/M12 A3027 RMK AO2
KBDN 230715Z AUTO 00000KT 6SM -SN FEW004 BKN009 OVC034 M10/M11 A3027 RMK AO2
KBDN 230655Z AUTO 31005KT 10SM OVC008 M09/M10 A3027 RMK AO2
KBDN 230635Z AUTO 31006KT 9SM -SN OVC008 M09/M10 A3026 RMK AO2
KBDN 230615Z AUTO 31005KT 6SM -SN FEW001 OVC009 M09/M10 A3025 RMK AO2
KBDN 230555Z AUTO 00000KT 2 1/2SM -SN FEW001 BKN010 OVC031 M09/M10 A3025 RMK AO2
KBDN 230535Z AUTO 33005KT 4SM -SN SCT011 BKN027 OVC032 M09/M10 A3024 RMK AO2
KBDN 230515Z AUTO 33005KT 3SM -SN FEW009 SCT020 BKN027 M09/M10 A3024 RMK AO2
KBDN 230455Z AUTO 33005KT 3SM -SN FEW001 BKN011 OVC030 M08/M10 A3023 RMK AO2
KBDN 230435Z AUTO 34004KT 3SM -SN SCT011 BKN019 OVC024 M08/M10 A3022 RMK AO2
KBDN 230415Z AUTO 34005KT 5SM -SN BKN009 BKN014 OVC022 M08/M10 A3021 RMK AO2
KBDN 230355Z AUTO 33006G11KT 8SM -SN BKN010 OVC014 M08/M10 A3021 RMK AO2
KBDN 230335Z AUTO 33005KT 10SM SCT009 BKN014 OVC033 M08/M10 A3020 RMK AO2
KBDN 230315Z AUTO 34007KT 7SM -SN FEW009 OVC031 M08/M10 A3019 RMK AO2
KBDN 230255Z AUTO 34007KT 7SM -SN OVC029 M08/M10 A3018 RMK AO2
KBDN 230235Z AUTO 34006KT 8SM -SN FEW009 FEW013 OVC030 M08/M10 A3017 RMK AO2
KBDN 230215Z AUTO 34007KT 9SM -SN SCT014 SCT021 OVC030 M08/M10 A3016 RMK AO2